Southfield Township, Michigan
Current Conditions -  °F | °C
As of 6:54 PM on Monday 20 Oct 2014 (Local Time) from KVLL Reporting Station
Overcast Overcast  
Wind Chill: 57°   Ceiling: 7000
Heat Index: 57°   Visibility: 10mi
Dew Point: 47°   Wind: 3mph
Humidity: 70%   Direction: 280°W
Pressure: 29.82"   Gusts: NA
Location:  42.5206°N, 83.2664°W
Report Text: KVLL 202254Z AUTO 28003KT 10SM SCT035 OVC070 14/09 A2982 RMK AO2 T01400086
Loading
Personal Weather Stations






























Interactive Weather Map
Tropical Storm Tracking
New forecast layout! Learn more

10-Day Weather Forecast

Advertisements
Track Severe Weather on mobile